AUA1503 ESGG-ESSA
Flight info
| Callsign | AUA1503 |
|---|---|
| Flight time | 0h 45m |
| Altitude | 29000 |
| Route | LABAN N873 ARS T317 ELTOK |
| Aircraft | A20N/M-SDE2E3FGHIRWXY/LB1 |
Departure
| Time | 2026-05-04 19:09 |
|---|---|
| Airport | Göteborg Landvetter Airport (ESGG) |
Arrival
| Time | 2026-05-04 19:54 |
|---|---|
| Airport | Stockholm-Arlanda Airport (ESSA) |
| Time | Latitude | Longitude | Altitude | Speed | Heading |
|---|---|---|---|---|---|
| 2026-05-04 18:44 | 57.67054 | 12.29549 | 529 ft | 0 kts | 116° |
| 2026-05-04 19:01 | 57.67062 | 12.29519 | 529 ft | 5 kts | 122° |
| 2026-05-04 19:01 | 57.67090 | 12.29476 | 529 ft | 5 kts | 166° |
| 2026-05-04 19:01 | 57.67114 | 12.29478 | 529 ft | 0 kts | 208° |
| 2026-05-04 19:03 | 57.67096 | 12.29459 | 529 ft | 4 kts | 208° |
| 2026-05-04 19:03 | 57.67059 | 12.29421 | 529 ft | 8 kts | 208° |
| 2026-05-04 19:04 | 57.67002 | 12.29369 | 528 ft | 9 kts | 205° |
| 2026-05-04 19:04 | 57.66991 | 12.29269 | 528 ft | 3 kts | 298° |
| 2026-05-04 19:04 | 57.67025 | 12.29198 | 528 ft | 8 kts | 344° |
| 2026-05-04 19:04 | 57.67076 | 12.29218 | 528 ft | 3 kts | 25° |
| 2026-05-04 19:05 | 57.67091 | 12.29231 | 529 ft | 7 kts | 26° |
| 2026-05-04 19:05 | 57.67163 | 12.29297 | 529 ft | 15 kts | 26° |
| 2026-05-04 19:05 | 57.67271 | 12.29396 | 530 ft | 17 kts | 23° |
| 2026-05-04 19:05 | 57.67323 | 12.29441 | 531 ft | 0 kts | 26° |
| 2026-05-04 19:06 | 57.67357 | 12.29471 | 531 ft | 10 kts | 25° |
| 2026-05-04 19:06 | 57.67425 | 12.29411 | 532 ft | 15 kts | 295° |
| 2026-05-04 19:06 | 57.67459 | 12.29257 | 532 ft | 10 kts | 278° |
| 2026-05-04 19:07 | 57.67460 | 12.29093 | 530 ft | 15 kts | 285° |
| 2026-05-04 19:07 | 57.67462 | 12.29049 | 530 ft | 1 kts | 245° |
| 2026-05-04 19:07 | 57.67453 | 12.29043 | 530 ft | 0 kts | 205° |
| 2026-05-04 19:08 | 57.67443 | 12.29034 | 530 ft | 13 kts | 205° |
| 2026-05-04 19:09 | 57.67143 | 12.28756 | 530 ft | 80 kts | 205° |
| 2026-05-04 19:09 | 57.66474 | 12.28143 | 524 ft | 132 kts | 206° |
| 2026-05-04 19:09 | 57.65559 | 12.27334 | 767 ft | 147 kts | 209° |
| 2026-05-04 19:09 | 57.64626 | 12.26478 | 1333 ft | 153 kts | 212° |
| 2026-05-04 19:10 | 57.63668 | 12.25604 | 2019 ft | 152 kts | 214° |
| 2026-05-04 19:10 | 57.62698 | 12.24701 | 2468 ft | 164 kts | 215° |
| 2026-05-04 19:10 | 57.61627 | 12.23665 | 2752 ft | 183 kts | 214° |
| 2026-05-04 19:10 | 57.60327 | 12.22889 | 2944 ft | 215 kts | 191° |
| 2026-05-04 19:11 | 57.58792 | 12.23437 | 3530 ft | 236 kts | 155° |
| 2026-05-04 19:11 | 57.57575 | 12.25524 | 4454 ft | 243 kts | 129° |
| 2026-05-04 19:11 | 57.56640 | 12.28186 | 5385 ft | 249 kts | 116° |
| 2026-05-04 19:11 | 57.56314 | 12.31346 | 6323 ft | 253 kts | 83° |
| 2026-05-04 19:12 | 57.56756 | 12.34543 | 7029 ft | 263 kts | 65° |
| 2026-05-04 19:12 | 57.58412 | 12.41277 | 8027 ft | 306 kts | 62° |
| 2026-05-04 19:12 | 57.59285 | 12.44948 | 8891 ft | 314 kts | 63° |
| 2026-05-04 19:13 | 57.60137 | 12.48768 | 9762 ft | 322 kts | 64° |
| 2026-05-04 19:13 | 57.60974 | 12.52676 | 10604 ft | 328 kts | 65° |
| 2026-05-04 19:13 | 57.61879 | 12.56606 | 11421 ft | 331 kts | 56° |
| 2026-05-04 19:13 | 57.63316 | 12.59912 | 12221 ft | 327 kts | 34° |
| 2026-05-04 19:14 | 57.65165 | 12.62372 | 13010 ft | 329 kts | 27° |
| 2026-05-04 19:14 | 57.67077 | 12.64778 | 13805 ft | 334 kts | 27° |
| 2026-05-04 19:14 | 57.69004 | 12.67214 | 14586 ft | 337 kts | 27° |
| 2026-05-04 19:14 | 57.70946 | 12.69688 | 15375 ft | 339 kts | 27° |
| 2026-05-04 19:15 | 57.72897 | 12.72185 | 16159 ft | 341 kts | 27° |
| 2026-05-04 19:15 | 57.74866 | 12.74709 | 16935 ft | 344 kts | 27° |
| 2026-05-04 19:15 | 57.76850 | 12.77257 | 17701 ft | 347 kts | 27° |
| 2026-05-04 19:15 | 57.78851 | 12.79828 | 18416 ft | 350 kts | 27° |
| 2026-05-04 19:16 | 57.80854 | 12.82404 | 19000 ft | 355 kts | 27° |
| 2026-05-04 19:16 | 57.82924 | 12.85069 | 19640 ft | 359 kts | 26° |
| 2026-05-04 19:16 | 57.84998 | 12.87745 | 20189 ft | 364 kts | 27° |
| 2026-05-04 19:16 | 57.87089 | 12.90447 | 20830 ft | 367 kts | 27° |
| 2026-05-04 19:17 | 57.89208 | 12.93187 | 21401 ft | 372 kts | 27° |
| 2026-05-04 19:17 | 57.91348 | 12.95958 | 21992 ft | 376 kts | 27° |
| 2026-05-04 19:17 | 57.93512 | 12.98763 | 22555 ft | 380 kts | 27° |
| 2026-05-04 19:17 | 57.95697 | 13.01599 | 23118 ft | 384 kts | 27° |
| 2026-05-04 19:18 | 57.97908 | 13.04475 | 23641 ft | 388 kts | 27° |
| 2026-05-04 19:18 | 58.00133 | 13.07374 | 24141 ft | 390 kts | 27° |
| 2026-05-04 19:18 | 58.02365 | 13.10286 | 24648 ft | 392 kts | 27° |
| 2026-05-04 19:18 | 58.04616 | 13.13227 | 25127 ft | 395 kts | 27° |
| 2026-05-04 19:19 | 58.06852 | 13.16152 | 25599 ft | 398 kts | 27° |
| 2026-05-04 19:19 | 58.09129 | 13.19135 | 26074 ft | 400 kts | 28° |
| 2026-05-04 19:19 | 58.11423 | 13.22145 | 26535 ft | 403 kts | 28° |
| 2026-05-04 19:19 | 58.13731 | 13.25179 | 26977 ft | 405 kts | 28° |
| 2026-05-04 19:20 | 58.16028 | 13.28311 | 27437 ft | 411 kts | 33° |
| 2026-05-04 19:20 | 58.18136 | 13.32047 | 27864 ft | 419 kts | 43° |
| 2026-05-04 19:20 | 58.20040 | 13.36275 | 28295 ft | 423 kts | 45° |
| 2026-05-04 19:20 | 58.21954 | 13.40530 | 28692 ft | 426 kts | 45° |
| 2026-05-04 19:21 | 58.23858 | 13.44743 | 28804 ft | 427 kts | 45° |
| 2026-05-04 19:21 | 58.27745 | 13.53376 | 28831 ft | 426 kts | 45° |
| 2026-05-04 19:22 | 58.31566 | 13.61905 | 28851 ft | 429 kts | 44° |
| 2026-05-04 19:22 | 58.35483 | 13.70680 | 28818 ft | 444 kts | 44° |
| 2026-05-04 19:23 | 58.39422 | 13.79838 | 28797 ft | 445 kts | 45° |
| 2026-05-04 19:23 | 58.43463 | 13.88761 | 28804 ft | 444 kts | 44° |
| 2026-05-04 19:24 | 58.47471 | 13.97735 | 28814 ft | 445 kts | 45° |
| 2026-05-04 19:24 | 58.51453 | 14.06780 | 28800 ft | 448 kts | 45° |
| 2026-05-04 19:25 | 58.55423 | 14.15870 | 28800 ft | 447 kts | 45° |
| 2026-05-04 19:25 | 58.59418 | 14.25044 | 28797 ft | 448 kts | 45° |
| 2026-05-04 19:26 | 58.63397 | 14.34217 | 28800 ft | 447 kts | 45° |
| 2026-05-04 19:26 | 58.67374 | 14.43416 | 28797 ft | 448 kts | 45° |
| 2026-05-04 19:27 | 58.71320 | 14.52577 | 28791 ft | 448 kts | 45° |
| 2026-05-04 19:27 | 58.75284 | 14.61817 | 28786 ft | 448 kts | 45° |
| 2026-05-04 19:28 | 58.79250 | 14.71099 | 28778 ft | 450 kts | 45° |
| 2026-05-04 19:28 | 58.83221 | 14.80428 | 28768 ft | 450 kts | 45° |
| 2026-05-04 19:29 | 58.87161 | 14.89721 | 28759 ft | 450 kts | 46° |
| 2026-05-04 19:29 | 58.91091 | 14.99028 | 28756 ft | 450 kts | 46° |
| 2026-05-04 19:30 | 58.95042 | 15.08423 | 28753 ft | 450 kts | 46° |
| 2026-05-04 19:30 | 58.98715 | 15.18257 | 28511 ft | 450 kts | 52° |
| 2026-05-04 19:30 | 59.00460 | 15.23294 | 28030 ft | 451 kts | 52° |
| 2026-05-04 19:31 | 59.02159 | 15.28267 | 27453 ft | 450 kts | 52° |
| 2026-05-04 19:31 | 59.03910 | 15.33480 | 26596 ft | 456 kts | 53° |
| 2026-05-04 19:31 | 59.05641 | 15.38702 | 25693 ft | 463 kts | 53° |
| 2026-05-04 19:31 | 59.07364 | 15.43944 | 24784 ft | 470 kts | 53° |
| 2026-05-04 19:32 | 59.09125 | 15.49334 | 24052 ft | 472 kts | 53° |
| 2026-05-04 19:32 | 59.10875 | 15.54713 | 23553 ft | 467 kts | 53° |
| 2026-05-04 19:32 | 59.12603 | 15.60039 | 22963 ft | 464 kts | 53° |
| 2026-05-04 19:32 | 59.14308 | 15.65300 | 22386 ft | 459 kts | 53° |
| 2026-05-04 19:33 | 59.16003 | 15.70535 | 21813 ft | 455 kts | 53° |
| 2026-05-04 19:33 | 59.17680 | 15.75727 | 21250 ft | 450 kts | 53° |
| 2026-05-04 19:33 | 59.19338 | 15.80868 | 20692 ft | 446 kts | 53° |
| 2026-05-04 19:33 | 59.20981 | 15.85977 | 20195 ft | 442 kts | 53° |
| 2026-05-04 19:34 | 59.22618 | 15.91072 | 19509 ft | 443 kts | 52° |
| 2026-05-04 19:34 | 59.24221 | 15.96076 | 19019 ft | 438 kts | 52° |
| 2026-05-04 19:34 | 59.25828 | 16.01105 | 18505 ft | 434 kts | 52° |
| 2026-05-04 19:34 | 59.27420 | 16.06097 | 18015 ft | 431 kts | 52° |
| 2026-05-04 19:35 | 59.28995 | 16.11043 | 17449 ft | 426 kts | 53° |
| 2026-05-04 19:35 | 59.30552 | 16.15942 | 16925 ft | 421 kts | 53° |
| 2026-05-04 19:35 | 59.32089 | 16.20788 | 16408 ft | 417 kts | 53° |
| 2026-05-04 19:35 | 59.33606 | 16.25584 | 15910 ft | 412 kts | 53° |
| 2026-05-04 19:36 | 59.35106 | 16.30332 | 15422 ft | 408 kts | 54° |
| 2026-05-04 19:36 | 59.36585 | 16.35022 | 14901 ft | 403 kts | 54° |
| 2026-05-04 19:36 | 59.37947 | 16.39646 | 14400 ft | 403 kts | 64° |
| 2026-05-04 19:36 | 59.38684 | 16.44913 | 13913 ft | 401 kts | 81° |
| 2026-05-04 19:37 | 59.39081 | 16.50225 | 13442 ft | 397 kts | 82° |
| 2026-05-04 19:37 | 59.39474 | 16.55547 | 12974 ft | 391 kts | 82° |
| 2026-05-04 19:37 | 59.39860 | 16.60794 | 12513 ft | 386 kts | 82° |
| 2026-05-04 19:37 | 59.40238 | 16.65982 | 12069 ft | 381 kts | 82° |
| 2026-05-04 19:38 | 59.40608 | 16.71092 | 11626 ft | 376 kts | 82° |
| 2026-05-04 19:38 | 59.40967 | 16.76146 | 11161 ft | 372 kts | 82° |
| 2026-05-04 19:38 | 59.41318 | 16.81135 | 10704 ft | 367 kts | 81° |
| 2026-05-04 19:38 | 59.42071 | 16.85849 | 10236 ft | 359 kts | 59° |
| 2026-05-04 19:39 | 59.43429 | 16.89855 | 10016 ft | 345 kts | 52° |
| 2026-05-04 19:39 | 59.44786 | 16.93629 | 9886 ft | 331 kts | 52° |
| 2026-05-04 19:39 | 59.46071 | 16.97211 | 9768 ft | 319 kts | 52° |
| 2026-05-04 19:39 | 59.47321 | 17.00715 | 9602 ft | 308 kts | 52° |
| 2026-05-04 19:40 | 59.48541 | 17.04146 | 9239 ft | 305 kts | 52° |
| 2026-05-04 19:40 | 59.49751 | 17.07554 | 8802 ft | 303 kts | 52° |
| 2026-05-04 19:40 | 59.50954 | 17.10948 | 8412 ft | 301 kts | 52° |
| 2026-05-04 19:40 | 59.52135 | 17.14292 | 8040 ft | 298 kts | 52° |
| 2026-05-04 19:41 | 59.53310 | 17.17635 | 7665 ft | 296 kts | 52° |
| 2026-05-04 19:41 | 59.54472 | 17.20956 | 7291 ft | 294 kts | 52° |
| 2026-05-04 19:41 | 59.55627 | 17.24266 | 6908 ft | 292 kts | 52° |
| 2026-05-04 19:41 | 59.56742 | 17.27480 | 6739 ft | 289 kts | 52° |
| 2026-05-04 19:42 | 59.57887 | 17.30793 | 6810 ft | 296 kts | 52° |
| 2026-05-04 19:42 | 59.59043 | 17.34126 | 6747 ft | 292 kts | 52° |
| 2026-05-04 19:42 | 59.60179 | 17.37418 | 6432 ft | 290 kts | 52° |
| 2026-05-04 19:42 | 59.61321 | 17.40699 | 6082 ft | 289 kts | 52° |
| 2026-05-04 19:43 | 59.62457 | 17.43963 | 5675 ft | 288 kts | 52° |
| 2026-05-04 19:43 | 59.63573 | 17.47167 | 5285 ft | 287 kts | 52° |
| 2026-05-04 19:43 | 59.64700 | 17.50419 | 4892 ft | 286 kts | 52° |
| 2026-05-04 19:43 | 59.65825 | 17.53662 | 4473 ft | 285 kts | 52° |
| 2026-05-04 19:44 | 59.66971 | 17.56843 | 4130 ft | 282 kts | 48° |
| 2026-05-04 19:44 | 59.68192 | 17.59853 | 4015 ft | 281 kts | 47° |
| 2026-05-04 19:44 | 59.69378 | 17.62757 | 3992 ft | 271 kts | 47° |
| 2026-05-04 19:44 | 59.70585 | 17.65719 | 3995 ft | 273 kts | 47° |
| 2026-05-04 19:45 | 59.71758 | 17.68609 | 3996 ft | 273 kts | 47° |
| 2026-05-04 19:45 | 59.72948 | 17.71551 | 3993 ft | 273 kts | 47° |
| 2026-05-04 19:45 | 59.74130 | 17.74483 | 3998 ft | 272 kts | 47° |
| 2026-05-04 19:45 | 59.75428 | 17.77145 | 3997 ft | 266 kts | 28° |
| 2026-05-04 19:46 | 59.77071 | 17.78586 | 3916 ft | 258 kts | 13° |
| 2026-05-04 19:46 | 59.78775 | 17.79706 | 3630 ft | 258 kts | 12° |
| 2026-05-04 19:46 | 59.80476 | 17.80820 | 3282 ft | 257 kts | 12° |
| 2026-05-04 19:46 | 59.82174 | 17.81933 | 2916 ft | 257 kts | 12° |
| 2026-05-04 19:47 | 59.83839 | 17.83031 | 2777 ft | 248 kts | 13° |
| 2026-05-04 19:47 | 59.85470 | 17.84076 | 2542 ft | 244 kts | 12° |
| 2026-05-04 19:47 | 59.87046 | 17.85084 | 2488 ft | 231 kts | 12° |
| 2026-05-04 19:47 | 59.88515 | 17.86057 | 2481 ft | 216 kts | 18° |
| 2026-05-04 19:48 | 59.89680 | 17.87904 | 2482 ft | 231 kts | 52° |
| 2026-05-04 19:48 | 59.90225 | 17.90875 | 2480 ft | 231 kts | 88° |
| 2026-05-04 19:48 | 59.89895 | 17.93940 | 2486 ft | 227 kts | 124° |
| 2026-05-04 19:48 | 59.88824 | 17.96108 | 2490 ft | 218 kts | 155° |
| 2026-05-04 19:49 | 59.87510 | 17.97574 | 2489 ft | 215 kts | 158° |
| 2026-05-04 19:49 | 59.86199 | 17.98992 | 2489 ft | 215 kts | 158° |
| 2026-05-04 19:49 | 59.84881 | 18.00411 | 2488 ft | 218 kts | 158° |
| 2026-05-04 19:49 | 59.83441 | 18.01646 | 2486 ft | 222 kts | 173° |
| 2026-05-04 19:50 | 59.81990 | 18.01914 | 2482 ft | 198 kts | 189° |
| 2026-05-04 19:50 | 59.80690 | 18.01645 | 2495 ft | 189 kts | 196° |
| 2026-05-04 19:50 | 59.79399 | 18.01181 | 2482 ft | 182 kts | 199° |
| 2026-05-04 19:50 | 59.78176 | 18.00732 | 2486 ft | 180 kts | 198° |
| 2026-05-04 19:51 | 59.76954 | 18.00282 | 2492 ft | 182 kts | 199° |
| 2026-05-04 19:51 | 59.75708 | 17.99828 | 2364 ft | 182 kts | 199° |
| 2026-05-04 19:51 | 59.74474 | 17.99378 | 2113 ft | 178 kts | 199° |
| 2026-05-04 19:51 | 59.73327 | 17.98971 | 1886 ft | 156 kts | 200° |
| 2026-05-04 19:52 | 59.72329 | 17.98607 | 1681 ft | 137 kts | 201° |
| 2026-05-04 19:52 | 59.71433 | 17.98278 | 1494 ft | 127 kts | 202° |
| 2026-05-04 19:52 | 59.70551 | 17.97945 | 1330 ft | 130 kts | 200° |
| 2026-05-04 19:52 | 59.69662 | 17.97623 | 1146 ft | 131 kts | 200° |
| 2026-05-04 19:53 | 59.68774 | 17.97302 | 965 ft | 127 kts | 197° |
| 2026-05-04 19:53 | 59.67894 | 17.96983 | 789 ft | 130 kts | 195° |
| 2026-05-04 19:53 | 59.67027 | 17.96666 | 608 ft | 125 kts | 194° |
| 2026-05-04 19:53 | 59.66162 | 17.96353 | 451 ft | 128 kts | 195° |
| 2026-05-04 19:54 | 59.65304 | 17.96039 | 279 ft | 124 kts | 193° |
| 2026-05-04 19:54 | 59.64461 | 17.95733 | 162 ft | 117 kts | 194° |
| 2026-05-04 19:54 | 59.63846 | 17.95503 | 145 ft | 60 kts | 190° |
| 2026-05-04 19:54 | 59.63509 | 17.95370 | 144 ft | 46 kts | 199° |
| 2026-05-04 19:55 | 59.63278 | 17.95100 | 138 ft | 21 kts | 220° |
| 2026-05-04 19:55 | 59.63252 | 17.95055 | 138 ft | 1 kts | 228° |
| 2026-05-04 19:55 | 59.63247 | 17.94989 | 138 ft | 8 kts | 279° |
| 2026-05-04 19:55 | 59.63293 | 17.94931 | 138 ft | 14 kts | 345° |
| 2026-05-04 19:56 | 59.63512 | 17.94973 | 138 ft | 37 kts | 4° |
| 2026-05-04 19:56 | 59.63860 | 17.95111 | 138 ft | 64 kts | 10° |
| 2026-05-04 19:56 | 59.64333 | 17.95274 | 138 ft | 70 kts | 10° |
| 2026-05-04 19:56 | 59.64708 | 17.95420 | 138 ft | 50 kts | 10° |
| 2026-05-04 19:57 | 59.64897 | 17.95488 | 138 ft | 24 kts | 12° |
| 2026-05-04 19:57 | 59.65072 | 17.95495 | 138 ft | 21 kts | 351° |
| 2026-05-04 19:57 | 59.65225 | 17.95420 | 137 ft | 15 kts | 345° |
| 2026-05-04 19:57 | 59.65294 | 17.95384 | 137 ft | 13 kts | 345° |
| 2026-05-04 19:58 | 59.65431 | 17.95314 | 137 ft | 26 kts | 345° |
| 2026-05-04 19:58 | 59.65621 | 17.95210 | 138 ft | 30 kts | 344° |
| 2026-05-04 19:58 | 59.65737 | 17.95129 | 138 ft | 2 kts | 303° |
| 2026-05-04 19:58 | 59.65742 | 17.94992 | 138 ft | 14 kts | 262° |
| 2026-05-04 19:59 | 59.65719 | 17.94785 | 138 ft | 19 kts | 258° |
| 2026-05-04 19:59 | 59.65672 | 17.94399 | 137 ft | 25 kts | 253° |
| 2026-05-04 19:59 | 59.65643 | 17.94186 | 137 ft | 16 kts | 256° |
| 2026-05-04 19:59 | 59.65600 | 17.93890 | 137 ft | 22 kts | 234° |
| 2026-05-04 20:00 | 59.65520 | 17.93880 | 137 ft | 11 kts | 153° |
| 2026-05-04 20:00 | 59.65438 | 17.93898 | 137 ft | 9 kts | 222° |
| 2026-05-04 20:00 | 59.65429 | 17.93796 | 137 ft | 9 kts | 257° |
| 2026-05-04 20:00 | 59.65424 | 17.93755 | 137 ft | 0 kts | 255° |
| 2026-05-04 20:01 | 59.65423 | 17.93753 | 137 ft | 0 kts | 255° |